Time;durP1;ratioP1;P1;durP2;ratioP2;P2;SDS_P1;SDS_P2;PMS_P1;PMS_P2;Temp;Humidity;BMP_temperature;BMP_pressure;BME280_temperature;BME280_humidity;BME280_pressure;Samples;Min_cycle;Max_cycle;Signal;HPM_P1;HPM_P2
2021/10/14 00:01:43;;;;;;;21.70;12.27;;;;;;;;;;4409901;32;20276;-80
2021/10/14 00:04:15;;;;;;;23.70;13.50;;;;;;;;;;4410100;32;20268;-80
2021/10/14 00:06:40;;;;;;;21.87;12.00;;;;;;;;;;4410923;32;20622;-80
2021/10/14 00:09:06;;;;;;;20.17;12.83;;;;;;;;;;4413254;32;20223;-81
2021/10/14 00:11:32;;;;;;;23.67;11.30;;;;;;;;;;4418391;32;20241;-81
2021/10/14 00:13:57;;;;;;;21.27;11.83;;;;;;;;;;4418999;32;20186;-81
2021/10/14 00:16:23;;;;;;;19.97;12.23;;;;;;;;;;4419028;32;20217;-81
2021/10/14 00:18:49;;;;;;;22.77;11.07;;;;;;;;;;4419539;32;20303;-81
2021/10/14 00:21:15;;;;;;;18.10;10.50;;;;;;;;;;4418728;32;20256;-82
2021/10/14 00:23:40;;;;;;;14.40;11.17;;;;;;;;;;4396990;32;20248;-81
2021/10/14 00:26:06;;;;;;;13.73;9.67;;;;;;;;;;4408614;32;20311;-81
2021/10/14 00:28:32;;;;;;;17.70;10.20;;;;;;;;;;4408145;32;20238;-81
2021/10/14 00:30:58;;;;;;;19.97;10.60;;;;;;;;;;4408059;32;20413;-82
2021/10/14 00:33:23;;;;;;;15.63;8.77;;;;;;;;;;4407758;32;20201;-82
2021/10/14 00:35:49;;;;;;;12.80;8.53;;;;;;;;;;4407438;32;20288;-82
2021/10/14 00:38:15;;;;;;;17.57;8.57;;;;;;;;;;4407503;32;20255;-81
2021/10/14 00:40:42;;;;;;;13.17;8.53;;;;;;;;;;4393436;32;20247;-81
2021/10/14 00:43:08;;;;;;;12.40;8.07;;;;;;;;;;4407174;32;20997;-82
2021/10/14 00:45:34;;;;;;;13.93;7.90;;;;;;;;;;4406888;32;20244;-81
2021/10/14 00:47:59;;;;;;;13.50;8.03;;;;;;;;;;4393330;32;20302;-81
2021/10/14 00:50:25;;;;;;;12.37;8.30;;;;;;;;;;4406823;32;20248;-81
2021/10/14 00:52:52;;;;;;;13.07;8.37;;;;;;;;;;4393182;32;20294;-82
2021/10/14 00:55:18;;;;;;;12.63;8.80;;;;;;;;;;4406655;32;20629;-81
2021/10/14 00:57:43;;;;;;;16.67;8.37;;;;;;;;;;4407127;32;20235;-82
2021/10/14 01:00:10;;;;;;;11.70;8.77;;;;;;;;;;4408407;32;20218;-81
2021/10/14 01:02:36;;;;;;;14.73;7.70;;;;;;;;;;4407148;32;20197;-82
2021/10/14 01:05:03;;;;;;;9.87;8.50;;;;;;;;;;4392832;32;20593;-81
2021/10/14 01:07:29;;;;;;;10.97;7.93;;;;;;;;;;4407015;32;20533;-81
2021/10/14 01:09:55;;;;;;;10.57;8.07;;;;;;;;;;4407185;32;20562;-80
2021/10/14 01:12:22;;;;;;;11.20;8.17;;;;;;;;;;4393496;32;20267;-81
2021/10/14 01:14:48;;;;;;;11.60;7.53;;;;;;;;;;4407028;32;20580;-81
2021/10/14 01:17:13;;;;;;;10.13;7.87;;;;;;;;;;4393086;32;20243;-81
2021/10/14 01:19:40;;;;;;;12.47;8.27;;;;;;;;;;4406826;32;20276;-81
2021/10/14 01:22:06;;;;;;;11.87;7.83;;;;;;;;;;4406484;32;20646;-82
2021/10/14 01:24:32;;;;;;;13.60;7.33;;;;;;;;;;4406523;32;20193;-81
2021/10/14 01:27:02;;;;;;;12.07;8.47;;;;;;;;;;4393027;32;20220;-82
2021/10/14 01:29:28;;;;;;;13.57;9.20;;;;;;;;;;4406893;32;20616;-81
2021/10/14 01:31:54;;;;;;;16.13;7.67;;;;;;;;;;4406876;32;20222;-81
2021/10/14 01:34:20;;;;;;;17.47;8.23;;;;;;;;;;4392939;32;20330;-81
2021/10/14 01:36:45;;;;;;;9.90;6.13;;;;;;;;;;4406652;32;20220;-82
2021/10/14 01:39:11;;;;;;;12.23;6.57;;;;;;;;;;4406903;32;20197;-82
2021/10/14 01:41:37;;;;;;;8.07;6.47;;;;;;;;;;4406689;32;20230;-80
2021/10/14 01:44:03;;;;;;;11.63;7.87;;;;;;;;;;4406894;32;20268;-82
2021/10/14 01:46:28;;;;;;;7.80;6.93;;;;;;;;;;4406564;32;20630;-81
2021/10/14 01:48:54;;;;;;;9.83;7.13;;;;;;;;;;4406468;32;20272;-82
2021/10/14 01:51:20;;;;;;;9.50;7.67;;;;;;;;;;4406676;32;20245;-81
2021/10/14 01:53:45;;;;;;;7.83;7.03;;;;;;;;;;4407163;32;20291;-81
2021/10/14 01:56:11;;;;;;;8.93;6.73;;;;;;;;;;4406916;32;20341;-81
2021/10/14 01:58:37;;;;;;;10.60;7.50;;;;;;;;;;4406748;32;20264;-81
2021/10/14 02:01:02;;;;;;;13.10;8.17;;;;;;;;;;4407184;32;20251;-82
2021/10/14 02:03:28;;;;;;;13.30;8.97;;;;;;;;;;4407246;32;20189;-81
2021/10/14 02:05:54;;;;;;;15.00;9.00;;;;;;;;;;4407381;32;20221;-81
2021/10/14 02:08:19;;;;;;;11.23;8.27;;;;;;;;;;4409085;32;20327;-81
2021/10/14 02:10:45;;;;;;;11.37;8.03;;;;;;;;;;4395388;32;20221;-81
2021/10/14 02:13:11;;;;;;;11.13;8.60;;;;;;;;;;4409778;32;20271;-81
2021/10/14 02:15:36;;;;;;;16.63;8.37;;;;;;;;;;4409493;32;20284;-81
2021/10/14 02:18:02;;;;;;;14.33;9.37;;;;;;;;;;4409582;32;20224;-81
2021/10/14 02:20:28;;;;;;;15.23;9.40;;;;;;;;;;4408868;32;20226;-81
2021/10/14 02:22:53;;;;;;;12.37;8.83;;;;;;;;;;4395771;32;20292;-81
2021/10/14 02:25:19;;;;;;;16.00;9.57;;;;;;;;;;4395845;32;20349;-81
2021/10/14 02:27:45;;;;;;;11.97;9.20;;;;;;;;;;4409200;32;20244;-81
2021/10/14 02:30:13;;;;;;;11.77;8.17;;;;;;;;;;4409157;32;20621;-81
2021/10/14 02:32:40;;;;;;;10.83;8.17;;;;;;;;;;4408795;32;20710;-81
2021/10/14 02:35:06;;;;;;;11.07;8.17;;;;;;;;;;4408657;32;20796;-82
2021/10/14 02:37:33;;;;;;;10.30;8.30;;;;;;;;;;4394746;32;20616;-82
2021/10/14 02:39:58;;;;;;;11.60;8.87;;;;;;;;;;4408560;32;20716;-81
2021/10/14 02:42:24;;;;;;;10.47;8.93;;;;;;;;;;4409195;32;20201;-81
2021/10/14 02:44:50;;;;;;;16.80;9.40;;;;;;;;;;4409202;32;20595;-82
2021/10/14 02:47:16;;;;;;;10.20;8.43;;;;;;;;;;4409373;32;20224;-82
2021/10/14 02:49:41;;;;;;;14.53;8.83;;;;;;;;;;4409258;32;20265;-81
2021/10/14 02:52:07;;;;;;;11.03;8.93;;;;;;;;;;4409243;32;20337;-81
2021/10/14 02:54:34;;;;;;;14.00;9.13;;;;;;;;;;4409405;32;20255;-81
2021/10/14 02:56:59;;;;;;;12.37;9.33;;;;;;;;;;4408802;32;20717;-82
2021/10/14 02:59:25;;;;;;;11.90;8.87;;;;;;;;;;4408817;32;20225;-81
2021/10/14 03:01:51;;;;;;;12.70;9.30;;;;;;;;;;4408491;32;20243;-82
2021/10/14 03:04:17;;;;;;;13.07;9.77;;;;;;;;;;4408668;32;20306;-80
2021/10/14 03:06:43;;;;;;;13.10;9.37;;;;;;;;;;4408228;32;20278;-82
2021/10/14 03:09:09;;;;;;;20.23;11.00;;;;;;;;;;4407510;32;20293;-81
2021/10/14 03:11:35;;;;;;;12.20;9.40;;;;;;;;;;4408843;32;20747;-80
2021/10/14 03:14:01;;;;;;;12.83;8.90;;;;;;;;;;4410239;32;20261;-82
2021/10/14 03:16:27;;;;;;;11.93;8.77;;;;;;;;;;4395527;32;20358;-81
2021/10/14 03:18:53;;;;;;;10.50;7.80;;;;;;;;;;4408798;32;20245;-81
2021/10/14 03:21:19;;;;;;;10.80;8.60;;;;;;;;;;4408553;32;20539;-81
2021/10/14 03:23:45;;;;;;;11.27;8.23;;;;;;;;;;4408663;32;20565;-80
2021/10/14 03:26:11;;;;;;;11.13;8.80;;;;;;;;;;4408667;32;20221;-82
2021/10/14 03:28:37;;;;;;;11.30;9.40;;;;;;;;;;4407233;32;20245;-82
2021/10/14 03:31:03;;;;;;;13.80;10.03;;;;;;;;;;4406724;32;20243;-81
2021/10/14 03:33:29;;;;;;;10.40;8.13;;;;;;;;;;4392724;32;20620;-81
2021/10/14 03:35:55;;;;;;;13.87;10.07;;;;;;;;;;4392840;32;20222;-82
2021/10/14 03:38:20;;;;;;;12.27;9.10;;;;;;;;;;4406967;32;20277;-82
2021/10/14 03:40:46;;;;;;;16.73;9.33;;;;;;;;;;4406604;32;20243;-82
2021/10/14 03:43:12;;;;;;;11.13;10.00;;;;;;;;;;4406970;32;20239;-82
2021/10/14 03:45:38;;;;;;;12.37;9.43;;;;;;;;;;4406507;32;20241;-81
2021/10/14 03:48:04;;;;;;;10.87;8.77;;;;;;;;;;4406613;32;20194;-81
2021/10/14 03:50:29;;;;;;;9.90;8.90;;;;;;;;;;4406775;32;20760;-81
2021/10/14 03:52:55;;;;;;;11.70;9.27;;;;;;;;;;4406553;32;20417;-81
2021/10/14 03:55:21;;;;;;;12.40;9.73;;;;;;;;;;4406047;32;20224;-81
2021/10/14 03:57:47;;;;;;;12.40;9.93;;;;;;;;;;4405839;32;20189;-81
2021/10/14 04:00:13;;;;;;;11.53;9.57;;;;;;;;;;4406492;32;20216;-81
2021/10/14 04:02:39;;;;;;;14.23;10.00;;;;;;;;;;4406273;32;20277;-82
2021/10/14 04:05:05;;;;;;;14.20;10.47;;;;;;;;;;4406609;32;20553;-82
2021/10/14 04:07:31;;;;;;;12.97;9.57;;;;;;;;;;4392510;32;20515;-80
2021/10/14 04:09:57;;;;;;;11.83;9.50;;;;;;;;;;4405861;32;20253;-81
2021/10/14 04:12:22;;;;;;;11.90;9.63;;;;;;;;;;4406187;32;20275;-82
2021/10/14 04:14:49;;;;;;;11.77;9.30;;;;;;;;;;4406164;32;20201;-82
2021/10/14 04:17:15;;;;;;;14.90;10.00;;;;;;;;;;4405932;32;20519;-81
2021/10/14 04:19:41;;;;;;;11.70;9.47;;;;;;;;;;4405512;32;20201;-81
2021/10/14 04:22:07;;;;;;;13.17;9.20;;;;;;;;;;4405684;32;20226;-81
2021/10/14 04:24:33;;;;;;;10.73;8.57;;;;;;;;;;4406137;32;20194;-81
2021/10/14 04:26:59;;;;;;;12.37;9.63;;;;;;;;;;4405666;32;20593;-81
2021/10/14 04:29:25;;;;;;;14.60;10.87;;;;;;;;;;4391589;32;20570;-82
2021/10/14 04:31:51;;;;;;;11.50;9.23;;;;;;;;;;4405157;32;20604;-81
2021/10/14 04:34:17;;;;;;;10.63;8.00;;;;;;;;;;4391971;32;20543;-81
2021/10/14 04:36:43;;;;;;;10.37;8.20;;;;;;;;;;4405822;32;20257;-81
2021/10/14 04:39:09;;;;;;;13.63;9.37;;;;;;;;;;4405664;32;20295;-81
2021/10/14 04:41:35;;;;;;;12.40;8.50;;;;;;;;;;4405444;32;20243;-81
2021/10/14 04:44:01;;;;;;;12.70;8.60;;;;;;;;;;4405650;32;20648;-82
2021/10/14 04:46:27;;;;;;;11.00;8.33;;;;;;;;;;4405220;32;20623;-82
2021/10/14 04:48:53;;;;;;;12.97;8.90;;;;;;;;;;4405526;32;20227;-80
2021/10/14 04:51:19;;;;;;;9.30;7.23;;;;;;;;;;4405552;32;20387;-81
2021/10/14 04:53:45;;;;;;;12.13;8.40;;;;;;;;;;4405344;32;20293;-81
2021/10/14 04:56:10;;;;;;;12.67;8.33;;;;;;;;;;4405201;32;20221;-82
2021/10/14 04:58:36;;;;;;;10.87;8.83;;;;;;;;;;4391481;32;20312;-81
2021/10/14 05:01:02;;;;;;;14.70;9.00;;;;;;;;;;4405988;32;20216;-82
2021/10/14 05:03:27;;;;;;;10.53;8.57;;;;;;;;;;4405461;32;20193;-81
2021/10/14 05:05:53;;;;;;;14.87;10.33;;;;;;;;;;4405582;32;20313;-81
2021/10/14 05:08:19;;;;;;;14.17;9.93;;;;;;;;;;4406331;32;20271;-82
2021/10/14 05:10:45;;;;;;;12.87;8.60;;;;;;;;;;4405138;32;20220;-81
2021/10/14 05:13:10;;;;;;;16.93;9.87;;;;;;;;;;4391476;32;20252;-80
2021/10/14 05:15:40;;;;;;;11.87;7.80;;;;;;;;;;4405144;32;20240;-81
2021/10/14 05:18:07;;;;;;;14.80;8.27;;;;;;;;;;4405349;32;20606;-78
2021/10/14 05:20:33;;;;;;;17.33;10.63;;;;;;;;;;4404695;32;20777;-81
2021/10/14 05:22:58;;;;;;;18.80;10.97;;;;;;;;;;4405300;32;20209;-80
2021/10/14 05:25:24;;;;;;;17.20;11.17;;;;;;;;;;4392059;32;20273;-80
2021/10/14 05:27:50;;;;;;;12.67;9.53;;;;;;;;;;4391468;32;20303;-80
2021/10/14 05:30:18;;;;;;;12.63;8.73;;;;;;;;;;4405260;32;20706;-80
2021/10/14 05:32:44;;;;;;;11.90;7.97;;;;;;;;;;4404795;32;20627;-80
2021/10/14 05:35:09;;;;;;;9.00;8.07;;;;;;;;;;4391385;32;20562;-80
2021/10/14 05:37:35;;;;;;;10.57;8.23;;;;;;;;;;4404884;32;20193;-80
2021/10/14 05:40:02;;;;;;;11.93;8.00;;;;;;;;;;4405352;32;20253;-80
2021/10/14 05:42:28;;;;;;;13.37;8.67;;;;;;;;;;4405956;32;20599;-81
2021/10/14 05:44:54;;;;;;;11.00;8.93;;;;;;;;;;4407934;32;20216;-81
2021/10/14 05:47:19;;;;;;;15.70;8.63;;;;;;;;;;4408406;32;20291;-84
2021/10/14 05:49:45;;;;;;;14.37;10.00;;;;;;;;;;4393989;32;20251;-83
2021/10/14 05:52:11;;;;;;;8.47;6.57;;;;;;;;;;4409334;32;20247;-80
2021/10/14 05:54:37;;;;;;;12.50;7.33;;;;;;;;;;4408404;32;20251;-82
2021/10/14 05:57:03;;;;;;;15.03;8.30;;;;;;;;;;4407612;32;20220;-81
2021/10/14 05:59:28;;;;;;;14.40;7.77;;;;;;;;;;4408308;32;20251;-82
2021/10/14 06:01:54;;;;;;;10.67;8.50;;;;;;;;;;4407972;32;20217;-82
2021/10/14 06:04:20;;;;;;;10.87;8.47;;;;;;;;;;4407762;32;20198;-82
2021/10/14 06:06:45;;;;;;;13.50;9.20;;;;;;;;;;4408897;32;20225;-81
2021/10/14 06:09:11;;;;;;;8.90;7.70;;;;;;;;;;4408957;32;20205;-81
2021/10/14 06:11:36;;;;;;;13.23;8.07;;;;;;;;;;4408319;32;20221;-81
2021/10/14 06:14:02;;;;;;;9.27;7.37;;;;;;;;;;4409073;32;20194;-81
2021/10/14 06:16:28;;;;;;;10.10;7.20;;;;;;;;;;4408013;32;20243;-82
2021/10/14 06:18:54;;;;;;;11.00;7.03;;;;;;;;;;4408083;32;20248;-82
2021/10/14 06:21:20;;;;;;;10.83;7.60;;;;;;;;;;4408356;32;20233;-82
2021/10/14 06:23:46;;;;;;;9.40;7.83;;;;;;;;;;4394253;32;20222;-82
2021/10/14 06:26:11;;;;;;;10.13;8.30;;;;;;;;;;4408594;32;20217;-81
2021/10/14 06:28:38;;;;;;;16.43;8.27;;;;;;;;;;4407656;32;20268;-81
2021/10/14 06:31:04;;;;;;;12.70;8.70;;;;;;;;;;4408200;32;20683;-82
2021/10/14 06:33:30;;;;;;;17.90;9.90;;;;;;;;;;4408144;32;20376;-82
2021/10/14 06:35:56;;;;;;;13.77;9.20;;;;;;;;;;4395083;32;20589;-80
2021/10/14 06:38:21;;;;;;;17.33;9.73;;;;;;;;;;4412614;32;20699;-82
2021/10/14 06:40:47;;;;;;;11.43;7.77;;;;;;;;;;4411863;32;20217;-80
2021/10/14 06:43:13;;;;;;;17.73;7.90;;;;;;;;;;4412344;32;20198;-82
2021/10/14 06:45:39;;;;;;;12.83;8.67;;;;;;;;;;4410167;32;20299;-82
2021/10/14 06:48:05;;;;;;;11.13;7.50;;;;;;;;;;4394133;32;20221;-82
2021/10/14 06:50:31;;;;;;;12.90;7.67;;;;;;;;;;4407868;32;20680;-82
2021/10/14 06:52:58;;;;;;;8.73;7.10;;;;;;;;;;4407921;32;20530;-80
2021/10/14 06:55:24;;;;;;;13.53;6.97;;;;;;;;;;4407248;32;20691;-80
2021/10/14 06:57:49;;;;;;;8.77;7.27;;;;;;;;;;4392626;32;20292;-82
2021/10/14 07:00:19;;;;;;;7.67;4.83;;;;;;;;;;4406278;32;20247;-83
2021/10/14 07:02:45;;;;;;;6.03;5.43;;;;;;;;;;4406697;32;20633;-84
2021/10/14 07:05:11;;;;;;;11.57;7.93;;;;;;;;;;4409784;32;20657;-82
2021/10/14 07:07:37;;;;;;;16.30;10.07;;;;;;;;;;4408793;32;20640;-83
2021/10/14 07:10:08;;;;;;;13.67;9.27;;;;;;;;;;4393984;32;20558;-81
2021/10/14 07:12:33;;;;;;;13.03;8.30;;;;;;;;;;4407887;32;20602;-81
2021/10/14 07:14:59;;;;;;;13.77;8.53;;;;;;;;;;4407872;32;20366;-81
2021/10/14 07:17:25;;;;;;;7.30;5.53;;;;;;;;;;4407555;32;20388;-81
2021/10/14 07:19:52;;;;;;;9.53;6.07;;;;;;;;;;4407336;32;20606;-81
2021/10/14 07:22:17;;;;;;;12.33;7.60;;;;;;;;;;4407315;32;20232;-81
2021/10/14 07:24:43;;;;;;;7.43;5.67;;;;;;;;;;4407327;32;20201;-81
2021/10/14 07:27:09;;;;;;;6.50;5.47;;;;;;;;;;4407610;32;20303;-83
2021/10/14 07:29:35;;;;;;;8.70;6.23;;;;;;;;;;4408369;32;20194;-81
2021/10/14 07:32:01;;;;;;;8.93;6.23;;;;;;;;;;4408311;32;20579;-80
2021/10/14 07:34:27;;;;;;;9.90;6.73;;;;;;;;;;4407977;32;20216;-83
2021/10/14 07:36:53;;;;;;;8.20;6.13;;;;;;;;;;4408014;32;20225;-80
2021/10/14 07:39:20;;;;;;;9.13;5.77;;;;;;;;;;4407898;32;20189;-81
2021/10/14 07:41:46;;;;;;;9.73;7.20;;;;;;;;;;4407877;32;20225;-82
2021/10/14 07:44:16;;;;;;;12.07;7.70;;;;;;;;;;4407659;32;20628;-81
2021/10/14 07:46:46;;;;;;;7.87;6.17;;;;;;;;;;4407709;32;20271;-81
2021/10/14 07:49:13;;;;;;;9.03;6.80;;;;;;;;;;4407473;32;20610;-81
2021/10/14 07:51:39;;;;;;;8.40;5.30;;;;;;;;;;4408104;32;20218;-81
2021/10/14 07:54:05;;;;;;;10.07;5.97;;;;;;;;;;4407818;32;20211;-81
2021/10/14 07:56:32;;;;;;;9.23;6.63;;;;;;;;;;4407717;32;20251;-79
2021/10/14 07:58:59;;;;;;;8.27;5.77;;;;;;;;;;4407870;32;20598;-84
2021/10/14 08:01:25;;;;;;;8.33;6.33;;;;;;;;;;4393283;32;20573;-81
2021/10/14 08:03:51;;;;;;;11.67;7.50;;;;;;;;;;4406414;32;20594;-82
2021/10/14 08:06:17;;;;;;;11.53;7.47;;;;;;;;;;4405602;32;20672;-80
2021/10/14 08:08:43;;;;;;;7.77;5.93;;;;;;;;;;4406506;32;20198;-81
2021/10/14 08:11:09;;;;;;;10.60;7.57;;;;;;;;;;4407608;32;20589;-82
2021/10/14 08:13:35;;;;;;;9.30;5.57;;;;;;;;;;4407517;32;20653;-80
2021/10/14 08:16:03;;;;;;;10.90;5.17;;;;;;;;;;4394642;32;20587;-82
2021/10/14 08:18:29;;;;;;;10.70;6.33;;;;;;;;;;4407630;32;20578;-81
2021/10/14 08:20:57;;;;;;;7.93;5.53;;;;;;;;;;4407016;32;20665;-81
2021/10/14 08:23:24;;;;;;;6.67;5.00;;;;;;;;;;4406710;32;20613;-80
2021/10/14 08:25:50;;;;;;;8.03;5.80;;;;;;;;;;4407366;32;20640;-83
2021/10/14 08:28:16;;;;;;;11.50;5.67;;;;;;;;;;4406986;32;20193;-83
2021/10/14 08:30:43;;;;;;;11.33;7.57;;;;;;;;;;4408102;32;20680;-82
2021/10/14 08:33:09;;;;;;;13.73;7.07;;;;;;;;;;4407762;32;20181;-80
2021/10/14 08:35:35;;;;;;;12.87;6.63;;;;;;;;;;4407233;32;20597;-81
2021/10/14 08:38:06;;;;;;;18.93;7.27;;;;;;;;;;4393682;32;20621;-81
2021/10/14 08:40:33;;;;;;;13.43;7.00;;;;;;;;;;4393803;32;20611;-81
2021/10/14 08:43:15;;;;;;;9.63;5.77;;;;;;;;;;4407303;32;20685;-81
2021/10/14 08:45:43;;;;;;;6.20;3.97;;;;;;;;;;4407604;32;20661;-82
2021/10/14 08:48:09;;;;;;;7.57;4.70;;;;;;;;;;4406825;32;20268;-82
2021/10/14 08:50:41;;;;;;;6.67;5.00;;;;;;;;;;4405925;32;20267;-82
2021/10/14 08:53:07;;;;;;;9.83;6.03;;;;;;;;;;4407318;32;20610;-82
2021/10/14 08:55:37;;;;;;;12.80;6.70;;;;;;;;;;4406060;32;20699;-81
2021/10/14 08:58:07;;;;;;;8.33;5.70;;;;;;;;;;4407591;32;20547;-80
2021/10/14 09:00:35;;;;;;;11.00;7.13;;;;;;;;;;4406355;32;20610;-81
2021/10/14 09:03:22;;;;;;;12.13;5.83;;;;;;;;;;4408597;32;20657;-79
2021/10/14 09:05:48;;;;;;;6.87;4.33;;;;;;;;;;4406031;32;20687;-81
2021/10/14 09:08:13;;;;;;;7.90;4.83;;;;;;;;;;4406224;32;20334;-81
2021/10/14 09:10:39;;;;;;;11.30;6.97;;;;;;;;;;4406605;32;20351;-80
2021/10/14 09:13:16;;;;;;;9.80;5.97;;;;;;;;;;4408102;32;20332;-81
2021/10/14 09:15:41;;;;;;;7.20;5.17;;;;;;;;;;4406496;32;20283;-80
2021/10/14 09:18:07;;;;;;;9.57;5.23;;;;;;;;;;4406627;32;20270;-80
2021/10/14 09:20:37;;;;;;;7.37;5.10;;;;;;;;;;4406742;32;20256;-82
2021/10/14 09:23:11;;;;;;;7.47;4.97;;;;;;;;;;4407401;32;20651;-79
2021/10/14 09:25:46;;;;;;;9.17;5.77;;;;;;;;;;4407895;32;20250;-80
2021/10/14 09:28:15;;;;;;;8.87;5.50;;;;;;;;;;4412034;32;20201;-80
2021/10/14 09:30:53;;;;;;;9.10;6.27;;;;;;;;;;4418554;32;20636;-80
2021/10/14 09:33:29;;;;;;;12.57;7.63;;;;;;;;;;4418651;32;20284;-81
2021/10/14 09:35:56;;;;;;;11.87;6.60;;;;;;;;;;4418863;32;20632;-79
2021/10/14 09:38:41;;;;;;;8.07;5.53;;;;;;;;;;4419028;32;20243;-80
2021/10/14 09:41:10;;;;;;;9.90;6.70;;;;;;;;;;4416746;32;20680;-82
2021/10/14 09:43:37;;;;;;;14.03;6.00;;;;;;;;;;4406813;32;20652;-81
2021/10/14 09:46:03;;;;;;;6.20;4.73;;;;;;;;;;4380086;32;20577;-84
2021/10/14 09:48:29;;;;;;;6.67;4.73;;;;;;;;;;4405662;32;20677;-82
2021/10/14 09:50:55;;;;;;;6.47;4.10;;;;;;;;;;4405893;32;20221;-81
2021/10/14 09:53:23;;;;;;;6.03;3.53;;;;;;;;;;4405845;32;20567;-84
2021/10/14 09:55:50;;;;;;;5.60;3.73;;;;;;;;;;4405511;32;20642;-83
2021/10/14 09:58:17;;;;;;;12.63;5.80;;;;;;;;;;4405298;32;20194;-82
2021/10/14 10:00:44;;;;;;;28.53;11.47;;;;;;;;;;4404874;32;20540;-83
2021/10/14 10:03:21;;;;;;;23.40;10.57;;;;;;;;;;4405248;32;20671;-84
2021/10/14 10:05:49;;;;;;;8.90;6.83;;;;;;;;;;4404902;32;20578;-85
2021/10/14 10:08:32;;;;;;;10.53;6.37;;;;;;;;;;4391085;32;20570;-84
2021/10/14 10:11:02;;;;;;;12.37;8.07;;;;;;;;;;4404706;32;20651;-81
2021/10/14 10:13:32;;;;;;;12.43;7.03;;;;;;;;;;4404815;32;20729;-84
2021/10/14 10:16:13;;;;;;;8.60;5.43;;;;;;;;;;4404779;32;20645;-83
2021/10/14 10:18:41;;;;;;;7.03;4.47;;;;;;;;;;4405152;32;20628;-83
2021/10/14 10:21:09;;;;;;;14.23;8.20;;;;;;;;;;4406592;32;20650;-82
2021/10/14 10:23:45;;;;;;;8.97;4.90;;;;;;;;;;4406539;32;20621;-83
2021/10/14 10:26:32;;;;;;;10.70;6.27;;;;;;;;;;4406102;32;20636;-82
2021/10/14 10:29:17;;;;;;;30.00;13.60;;;;;;;;;;4407760;32;20526;-82
2021/10/14 10:31:57;;;;;;;18.47;9.97;;;;;;;;;;4410193;32;20629;-84
2021/10/14 10:34:41;;;;;;;14.10;7.03;;;;;;;;;;4410292;32;20609;-82
2021/10/14 10:37:30;;;;;;;7.53;4.60;;;;;;;;;;4411190;32;20236;-83
2021/10/14 10:40:16;;;;;;;8.40;4.17;;;;;;;;;;4409601;32;20681;-83
2021/10/14 10:42:42;;;;;;;5.33;3.60;;;;;;;;;;4409575;32;20577;-82
2021/10/14 10:45:13;;;;;;;4.30;3.07;;;;;;;;;;4409215;32;20217;-82
2021/10/14 10:47:54;;;;;;;5.30;3.70;;;;;;;;;;4408763;32;20587;-81
2021/10/14 10:50:40;;;;;;;7.37;4.80;;;;;;;;;;4410663;32;20672;-81
2021/10/14 10:53:07;;;;;;;5.73;3.30;;;;;;;;;;4385632;32;20619;-80
2021/10/14 10:55:51;;;;;;;5.70;3.20;;;;;;;;;;4410461;32;20644;-82
2021/10/14 10:58:42;;;;;;;4.00;3.17;;;;;;;;;;4409620;32;20185;-82
2021/10/14 11:01:08;;;;;;;4.27;3.30;;;;;;;;;;4401058;32;20222;-83
2021/10/14 11:03:35;;;;;;;8.47;4.73;;;;;;;;;;4409786;32;20189;-81
2021/10/14 11:06:07;;;;;;;3.67;3.23;;;;;;;;;;4410582;32;20653;-80
2021/10/14 11:08:34;;;;;;;6.43;3.97;;;;;;;;;;4396215;32;20577;-83
2021/10/14 11:11:07;;;;;;;4.70;3.93;;;;;;;;;;4409997;32;20724;-83
2021/10/14 11:13:36;;;;;;;7.00;4.00;;;;;;;;;;4409770;32;20685;-82
2021/10/14 11:16:04;;;;;;;6.50;4.70;;;;;;;;;;4410651;32;20221;-82
2021/10/14 11:18:30;;;;;;;6.60;4.53;;;;;;;;;;4410402;32;20668;-83
2021/10/14 11:20:57;;;;;;;4.90;3.33;;;;;;;;;;4409211;32;20666;-81
2021/10/14 11:23:43;;;;;;;4.03;3.33;;;;;;;;;;4409963;32;20198;-82
2021/10/14 11:26:18;;;;;;;6.67;3.53;;;;;;;;;;4409789;32;20671;-81
2021/10/14 11:29:16;;;;;;;4.43;3.50;;;;;;;;;;4409434;32;20613;-81
2021/10/14 11:31:46;;;;;;;6.47;3.70;;;;;;;;;;4401527;32;20680;-82
2021/10/14 11:34:17;;;;;;;7.70;4.30;;;;;;;;;;4408322;32;20234;-82
2021/10/14 11:36:57;;;;;;;6.63;4.00;;;;;;;;;;4407703;32;20618;-82
2021/10/14 11:39:26;;;;;;;9.40;4.97;;;;;;;;;;4408320;32;20543;-82
2021/10/14 11:42:00;;;;;;;7.20;4.37;;;;;;;;;;4408260;32;20218;-81
2021/10/14 11:44:33;;;;;;;9.03;5.43;;;;;;;;;;4408261;32;20219;-82
2021/10/14 11:46:59;;;;;;;9.57;5.27;;;;;;;;;;4394306;32;20679;-81
2021/10/14 11:49:26;;;;;;;4.77;3.80;;;;;;;;;;4408531;32;20594;-81
2021/10/14 11:51:52;;;;;;;6.10;4.27;;;;;;;;;;4408347;32;20650;-83
2021/10/14 11:54:19;;;;;;;8.07;5.77;;;;;;;;;;4407438;32;20629;-81
2021/10/14 11:56:50;;;;;;;19.03;8.37;;;;;;;;;;4409439;32;20519;-81
2021/10/14 11:59:19;;;;;;;13.43;8.13;;;;;;;;;;4410991;32;20205;-80
2021/10/14 12:01:50;;;;;;;15.77;10.17;;;;;;;;;;4409997;32;20213;-82
2021/10/14 12:04:19;;;;;;;17.90;9.40;;;;;;;;;;4411452;32;20514;-82
2021/10/14 12:06:47;;;;;;;13.33;8.80;;;;;;;;;;4412093;32;20638;-81
2021/10/14 12:09:17;;;;;;;23.17;14.20;;;;;;;;;;4397559;32;20584;-82
2021/10/14 12:11:43;;;;;;;19.87;12.60;;;;;;;;;;4410479;32;20539;-81
2021/10/14 12:14:09;;;;;;;23.73;12.43;;;;;;;;;;4411208;32;20257;-80
2021/10/14 12:16:35;;;;;;;15.63;8.77;;;;;;;;;;4410670;32;20260;-81
2021/10/14 12:19:17;;;;;;;12.60;8.10;;;;;;;;;;4397322;32;20279;-82
2021/10/14 12:21:45;;;;;;;8.00;5.10;;;;;;;;;;4410264;32;20225;-80
2021/10/14 12:24:18;;;;;;;9.97;5.67;;;;;;;;;;4410449;32;20542;-82
2021/10/14 12:26:48;;;;;;;22.43;11.23;;;;;;;;;;4397174;32;20625;-80
2021/10/14 12:29:24;;;;;;;17.23;9.23;;;;;;;;;;4397057;32;20550;-81
2021/10/14 12:32:13;;;;;;;11.00;6.97;;;;;;;;;;4411236;32;20742;-81
2021/10/14 12:34:39;;;;;;;15.10;7.70;;;;;;;;;;4397855;32;20315;-82
2021/10/14 12:37:08;;;;;;;14.30;6.57;;;;;;;;;;4411093;32;20217;-82
2021/10/14 12:39:34;;;;;;;6.50;4.37;;;;;;;;;;4412101;32;20632;-82
2021/10/14 12:42:00;;;;;;;8.97;5.07;;;;;;;;;;4397176;32;20607;-81
2021/10/14 12:44:36;;;;;;;7.23;3.87;;;;;;;;;;4410924;32;20567;-81
2021/10/14 12:47:19;;;;;;;10.43;6.13;;;;;;;;;;4410315;32;20677;-82
2021/10/14 12:50:14;;;;;;;8.73;5.60;;;;;;;;;;4410416;32;20207;-82
2021/10/14 12:52:40;;;;;;;9.30;5.90;;;;;;;;;;4409988;32;20261;-81
2021/10/14 12:55:08;;;;;;;9.37;5.00;;;;;;;;;;4409217;32;20283;-80
2021/10/14 12:57:34;;;;;;;7.50;5.00;;;;;;;;;;4397221;32;20193;-80
2021/10/14 13:00:00;;;;;;;10.37;6.07;;;;;;;;;;4410071;32;20268;-81
2021/10/14 13:02:25;;;;;;;12.10;7.33;;;;;;;;;;4410413;32;20194;-82
2021/10/14 13:04:51;;;;;;;12.53;8.67;;;;;;;;;;4411540;32;20245;-83
2021/10/14 13:07:17;;;;;;;13.20;7.80;;;;;;;;;;4406815;32;20190;-82
2021/10/14 13:09:43;;;;;;;15.10;9.73;;;;;;;;;;4392343;32;20221;-83
2021/10/14 13:12:09;;;;;;;16.50;9.70;;;;;;;;;;4392380;32;20306;-83
2021/10/14 13:14:38;;;;;;;17.03;8.17;;;;;;;;;;4392101;32;20660;-82
2021/10/14 13:17:05;;;;;;;11.70;6.47;;;;;;;;;;4405215;32;20602;-80
2021/10/14 13:19:32;;;;;;;10.43;6.70;;;;;;;;;;4391764;32;20600;-82
2021/10/14 13:21:58;;;;;;;12.93;6.77;;;;;;;;;;4405660;32;20681;-80
2021/10/14 13:24:24;;;;;;;10.03;5.87;;;;;;;;;;4405607;32;20198;-82
2021/10/14 13:26:51;;;;;;;10.73;5.77;;;;;;;;;;4405250;32;20402;-82
2021/10/14 13:29:17;;;;;;;8.90;5.17;;;;;;;;;;4405401;32;20219;-81
2021/10/14 13:31:43;;;;;;;11.43;5.90;;;;;;;;;;4405966;32;20221;-80
2021/10/14 13:34:12;;;;;;;11.63;5.97;;;;;;;;;;4405507;32;20614;-83
2021/10/14 13:36:38;;;;;;;8.33;5.83;;;;;;;;;;4404609;32;20603;-81
2021/10/14 13:39:03;;;;;;;12.47;8.37;;;;;;;;;;4405251;32;20193;-80
2021/10/14 13:41:30;;;;;;;26.67;11.87;;;;;;;;;;4391041;32;20293;-82
2021/10/14 13:44:03;;;;;;;37.20;20.50;;;;;;;;;;4405684;32;20579;-82
2021/10/14 13:46:29;;;;;;;26.47;15.27;;;;;;;;;;4407254;32;20666;-80
2021/10/14 13:48:56;;;;;;;41.57;20.57;;;;;;;;;;4407237;32;20563;-80
2021/10/14 13:51:22;;;;;;;22.33;11.60;;;;;;;;;;4406678;32;20626;-81
2021/10/14 13:53:48;;;;;;;14.57;10.17;;;;;;;;;;4405499;32;20265;-81
2021/10/14 13:56:13;;;;;;;58.13;28.23;;;;;;;;;;4405439;32;20221;-81
2021/10/14 13:58:39;;;;;;;49.30;23.63;;;;;;;;;;4405199;32;20268;-80
2021/10/14 14:01:05;;;;;;;72.67;31.87;;;;;;;;;;4405601;32;20225;-81
2021/10/14 14:03:31;;;;;;;52.60;29.27;;;;;;;;;;4407497;32;20607;-81
2021/10/14 14:05:57;;;;;;;30.23;14.40;;;;;;;;;;4409596;32;20275;-80
2021/10/14 14:08:22;;;;;;;23.17;14.17;;;;;;;;;;4410860;32;20268;-81
2021/10/14 14:10:49;;;;;;;11.27;7.77;;;;;;;;;;4410535;32;20217;-81
2021/10/14 14:13:15;;;;;;;10.30;7.97;;;;;;;;;;4411151;32;20652;-83
2021/10/14 14:15:42;;;;;;;13.30;9.70;;;;;;;;;;4410658;32;20217;-81
2021/10/14 14:18:10;;;;;;;12.60;8.03;;;;;;;;;;4401705;32;20637;-80
2021/10/14 14:20:37;;;;;;;12.33;8.07;;;;;;;;;;4398010;32;20592;-79
2021/10/14 14:23:04;;;;;;;12.47;8.07;;;;;;;;;;4399050;32;20233;-80
2021/10/14 14:25:30;;;;;;;23.20;12.63;;;;;;;;;;4410606;32;20747;-82
2021/10/14 14:27:56;;;;;;;15.73;10.30;;;;;;;;;;4410921;32;20644;-82
2021/10/14 14:30:22;;;;;;;15.90;8.93;;;;;;;;;;4409883;32;20225;-82
2021/10/14 14:32:48;;;;;;;20.90;11.83;;;;;;;;;;4409617;32;20476;-82
2021/10/14 14:35:14;;;;;;;14.33;10.00;;;;;;;;;;4407956;32;20248;-82